createdAt,value
2023-04-23T00:00:52.956Z,92.87
2023-04-23T00:03:27.610Z,93.04
2023-04-23T00:06:00.744Z,93.15
2023-04-23T00:08:31.471Z,93.28
2023-04-23T00:11:01.763Z,93.39
2023-04-23T00:13:31.951Z,93.47
2023-04-23T00:16:06.030Z,93.58
2023-04-23T00:18:35.926Z,93.70
2023-04-23T00:21:05.897Z,93.78
2023-04-23T00:23:35.745Z,93.95
2023-04-23T00:26:05.592Z,93.94
2023-04-23T00:28:35.534Z,93.92
2023-04-23T00:31:08.007Z,93.98
2023-04-23T00:33:38.778Z,94.08
2023-04-23T00:36:09.530Z,93.91
2023-04-23T00:38:40.937Z,93.95
2023-04-23T00:41:11.168Z,93.93
2023-04-23T00:43:42.278Z,93.84
2023-04-23T00:46:18.555Z,93.95
2023-04-23T00:48:49.172Z,94.03
2023-04-23T00:51:27.586Z,94.14
2023-04-23T00:53:57.870Z,94.17
2023-04-23T00:56:30.597Z,94.19
2023-04-23T01:17:16.626Z,95.59
2023-04-23T01:19:46.700Z,95.86
2023-04-23T01:22:19.869Z,96.03
2023-04-23T01:24:50.464Z,96.20
2023-04-23T01:27:21.244Z,96.53
2023-04-23T01:29:51.278Z,96.84
2023-04-23T01:32:21.422Z,96.99
2023-04-23T01:34:52.097Z,97.24
2023-04-23T01:37:29.503Z,97.46
2023-04-23T01:56:05.583Z,99.45
2023-04-23T01:58:43.796Z,99.66
2023-04-23T02:01:13.627Z,99.73
2023-04-23T02:03:43.704Z,99.82
2023-04-23T02:06:14.066Z,99.98
2023-04-23T02:08:44.160Z,100.00
2023-04-23T02:11:16.620Z,100.00
2023-04-23T02:13:46.463Z,100.00
2023-04-23T02:16:16.474Z,100.00
2023-04-23T02:18:46.464Z,100.00
2023-04-23T02:21:16.498Z,100.00
2023-04-23T02:23:49.135Z,100.00
2023-04-23T06:30:00.413Z,100.00
2023-04-23T06:32:31.318Z,100.00
2023-04-23T07:43:02.932Z,100.00
2023-04-23T07:45:33.654Z,100.00
2023-04-23T07:48:03.603Z,99.63
2023-04-23T07:50:33.555Z,99.75
2023-04-23T07:53:03.541Z,99.56
2023-04-23T07:55:33.689Z,99.53
2023-04-23T07:58:06.313Z,99.70
2023-04-23T08:00:36.196Z,99.19
2023-04-23T08:03:06.333Z,98.93
2023-04-23T08:05:37.589Z,99.07
2023-04-23T08:08:10.033Z,98.93
2023-04-23T08:10:39.846Z,98.85
2023-04-23T08:13:12.442Z,98.32
2023-04-23T08:15:42.320Z,98.09
2023-04-23T08:18:23.845Z,97.46
2023-04-23T08:20:54.252Z,97.09
2023-04-23T08:23:24.435Z,96.82
2023-04-23T08:25:54.515Z,96.66
2023-04-23T08:28:28.396Z,96.11
2023-04-23T08:30:58.371Z,95.82
2023-04-23T08:33:28.562Z,95.51
2023-04-23T08:35:58.433Z,95.02
2023-04-23T08:38:28.533Z,94.75
2023-04-23T08:41:01.052Z,94.44
2023-04-23T08:43:42.440Z,93.95
2023-04-23T08:46:16.298Z,93.30
2023-04-23T08:48:48.107Z,92.79
2023-04-23T08:51:23.857Z,92.34
2023-04-23T08:53:59.085Z,91.87
2023-04-23T08:56:30.792Z,91.51
2023-04-23T08:59:04.185Z,91.39
2023-04-23T09:01:42.766Z,90.53
2023-04-23T09:04:17.862Z,90.16
2023-04-23T09:06:47.696Z,89.71
2023-04-23T09:09:19.763Z,89.41
2023-04-23T09:11:49.665Z,89.09
2023-04-23T09:14:29.615Z,88.36
2023-04-23T09:16:59.576Z,87.89
2023-04-23T09:19:30.708Z,87.80
2023-04-23T09:22:02.298Z,87.52
2023-04-23T09:24:35.001Z,86.91
2023-04-23T09:27:04.881Z,86.62
2023-04-23T09:29:37.303Z,86.24
2023-04-23T09:32:11.182Z,86.28
2023-04-23T09:34:43.630Z,86.04
2023-04-23T09:37:16.293Z,85.99
2023-04-23T09:39:46.327Z,85.74
2023-04-23T09:42:18.716Z,85.94
2023-04-23T09:44:59.577Z,85.23
2023-04-23T09:47:32.874Z,85.08
2023-04-23T09:50:03.623Z,85.08
2023-04-23T09:52:35.073Z,84.94
2023-04-23T09:55:05.916Z,85.22
2023-04-23T09:57:40.545Z,85.41
2023-04-23T10:00:23.130Z,85.72
2023-04-23T10:02:55.145Z,85.77
2023-04-23T10:05:33.964Z,86.09
2023-04-23T10:08:16.616Z,86.11
2023-04-23T10:11:05.923Z,86.00
2023-04-23T10:13:41.059Z,85.95
2023-04-23T10:16:23.206Z,85.71
2023-04-23T10:31:32.286Z,84.09
2023-04-23T10:34:13.383Z,83.74
2023-04-23T10:36:48.451Z,84.08
2023-04-23T10:39:30.122Z,84.13
2023-04-23T11:24:19.065Z,81.94
2023-04-23T11:26:51.625Z,82.19
2023-04-23T11:29:34.551Z,82.57
2023-04-23T11:32:05.637Z,82.43
2023-04-23T11:34:38.141Z,82.16
2023-04-23T11:37:16.832Z,82.07
2023-04-23T11:39:56.886Z,81.59
2023-04-23T11:42:30.982Z,81.15
2023-04-23T11:45:20.892Z,80.76
2023-04-23T11:47:56.720Z,80.93
2023-04-23T11:50:41.304Z,81.00
2023-04-23T11:53:16.225Z,80.40
2023-04-23T11:55:55.129Z,79.58
2023-04-23T11:58:30.796Z,79.25
2023-04-23T12:01:02.838Z,78.59
2023-04-23T12:03:35.447Z,78.27
2023-04-23T12:06:05.989Z,77.82
2023-04-23T12:08:40.809Z,77.67
2023-04-23T12:11:17.316Z,77.40
2023-04-23T12:13:51.896Z,77.21
2023-04-23T12:16:38.145Z,77.32
2023-04-23T12:19:11.301Z,76.95
2023-04-23T12:21:54.759Z,76.26
2023-04-23T12:24:28.266Z,76.02
2023-04-23T12:27:03.139Z,76.10
2023-04-23T12:29:39.668Z,75.57
2023-04-23T13:10:14.920Z,71.33
2023-04-23T13:12:46.009Z,71.35
2023-04-23T13:15:16.187Z,71.07
2023-04-23T13:17:48.032Z,70.75
2023-04-23T13:20:18.003Z,70.83
2023-04-23T13:22:47.790Z,71.02
2023-04-23T13:25:20.428Z,70.55
2023-04-23T13:27:50.229Z,69.63
2023-04-23T13:30:20.167Z,69.19
2023-04-23T13:32:50.123Z,69.19
2023-04-23T13:35:20.153Z,69.53
2023-04-23T13:37:50.027Z,69.83
2023-04-23T13:40:22.602Z,70.30
2023-04-23T13:42:55.310Z,70.45
2023-04-23T13:45:25.133Z,70.15
2023-04-23T13:47:55.518Z,69.69
2023-04-23T13:50:25.459Z,70.11
2023-04-23T13:52:55.290Z,69.65
2023-04-23T13:55:27.865Z,69.23
2023-04-23T13:57:59.061Z,69.10
2023-04-23T14:00:31.299Z,68.92
2023-04-23T14:03:01.246Z,68.78
2023-04-23T14:05:31.156Z,68.55
2023-04-23T14:08:05.269Z,68.73
2023-04-23T14:10:38.279Z,68.61
2023-04-23T14:13:08.188Z,68.79
2023-04-23T14:15:38.308Z,68.80
2023-04-23T14:18:08.822Z,68.68
2023-04-23T14:20:38.658Z,68.57
2023-04-23T14:23:36.363Z,68.17
2023-04-23T14:26:15.648Z,68.12
2023-04-23T14:28:53.783Z,68.29
2023-04-23T14:31:32.608Z,68.34
2023-04-23T16:49:48.776Z,72.55
2023-04-23T16:52:33.014Z,72.56
2023-04-23T17:28:12.138Z,72.93
2023-04-23T17:30:52.577Z,74.19
2023-04-23T17:33:25.167Z,74.85
2023-04-23T17:44:58.002Z,78.64
2023-04-23T17:47:41.071Z,80.24
2023-04-23T17:50:12.386Z,82.19
2023-04-23T17:53:05.567Z,83.51
2023-04-23T17:55:37.796Z,84.91
2023-04-23T17:58:09.735Z,85.95
2023-04-23T18:00:44.337Z,87.17
2023-04-23T18:03:26.815Z,88.26
2023-04-23T18:05:59.609Z,89.28
2023-04-23T18:08:30.473Z,90.05
2023-04-23T18:19:10.148Z,93.00
2023-04-23T18:21:51.099Z,93.33
2023-04-23T18:24:25.396Z,93.71
2023-04-23T18:26:55.394Z,94.13
2023-04-23T18:30:05.903Z,94.57
2023-04-23T18:43:52.381Z,95.14
2023-04-23T18:46:30.868Z,95.11
2023-04-23T18:49:06.796Z,95.32
2023-04-23T18:51:45.969Z,95.10
2023-04-23T18:54:25.754Z,95.15
2023-04-23T18:56:56.269Z,95.16
2023-04-23T18:59:35.357Z,94.96
2023-04-23T19:02:14.619Z,94.82
2023-04-23T19:04:51.883Z,94.70
2023-04-23T19:07:23.002Z,94.65
2023-04-23T19:09:52.831Z,94.73
2023-04-23T19:12:26.890Z,94.99
2023-04-23T19:14:56.780Z,94.92
2023-04-23T19:17:29.500Z,94.60
2023-04-23T19:20:04.110Z,94.54
2023-04-23T19:22:35.472Z,94.77
2023-04-23T19:25:13.493Z,95.17
2023-04-23T19:27:46.032Z,95.57
2023-04-23T19:30:18.553Z,95.67
2023-04-23T19:32:52.380Z,95.47
2023-04-23T19:35:28.775Z,95.71
2023-04-23T19:38:00.036Z,95.74
2023-04-23T19:40:29.931Z,95.86
2023-04-23T19:42:59.736Z,96.23
2023-04-23T19:45:40.041Z,96.74
2023-04-23T19:48:21.950Z,97.04
2023-04-23T19:50:55.454Z,97.69
2023-04-23T19:53:25.835Z,98.12
2023-04-23T19:55:59.135Z,98.89
2023-04-23T19:58:32.339Z,99.39
2023-04-23T20:01:02.222Z,99.75
2023-04-23T20:03:34.912Z,100.00
2023-04-23T20:06:09.840Z,100.00
2023-04-23T20:09:04.739Z,100.00
2023-04-23T20:11:34.898Z,100.00
2023-04-23T20:14:04.837Z,100.00
2023-04-23T20:16:43.452Z,100.00
2023-04-23T20:19:22.137Z,100.00
2023-04-23T22:28:49.757Z,100.00
2023-04-23T22:31:20.105Z,100.00
2023-04-23T22:33:49.940Z,100.00
2023-04-23T22:36:25.329Z,100.00
